Time;durP1;ratioP1;P1;durP2;ratioP2;P2;SDS_P1;SDS_P2;PMS_P1;PMS_P2;Temp;Humidity;BMP_temperature;BMP_pressure;BME280_temperature;BME280_humidity;BME280_pressure;Samples;Min_cycle;Max_cycle;Signal;HPM_P1;HPM_P2
2023/10/06 00:02:30;;;;;;;12.13;5.22;;;13.30;71.80;;;;;;5084995;28;20054;-93
2023/10/06 00:05:01;;;;;;;6.97;4.45;;;13.40;71.00;;;;;;5082523;28;20088;-93
2023/10/06 00:07:27;;;;;;;9.38;4.60;;;13.30;70.90;;;;;;5118722;28;20046;-93
2023/10/06 00:10:16;;;;;;;8.10;4.93;;;13.30;70.60;;;;;;5102479;28;20047;-92
2023/10/06 00:12:47;;;;;;;11.45;4.53;;;13.30;69.80;;;;;;5119421;28;20488;-93
2023/10/06 00:15:23;;;;;;;8.77;4.32;;;13.30;70.50;;;;;;5086924;28;20040;-92
2023/10/06 00:18:07;;;;;;;9.05;4.85;;;13.30;70.60;;;;;;5102149;28;20575;-91
2023/10/06 00:20:57;;;;;;;11.60;5.05;;;13.30;70.50;;;;;;5118171;28;20061;-93
2023/10/06 00:23:27;;;;;;;7.95;4.97;;;13.30;69.90;;;;;;5124672;27;20051;-92
2023/10/06 00:26:02;;;;;;;9.68;4.85;;;13.30;69.70;;;;;;5101807;28;20085;-92
2023/10/06 00:28:32;;;;;;;8.27;5.25;;;12.90;68.10;;;;;;5100782;28;20039;-92
2023/10/06 00:31:08;;;;;;;10.63;5.03;;;13.40;67.80;;;;;;5083637;28;20054;-92
2023/10/06 00:33:37;;;;;;;8.10;4.57;;;13.30;68.10;;;;;;5098912;28;20051;-92
2023/10/06 00:36:12;;;;;;;12.52;5.00;;;13.30;68.40;;;;;;5147215;27;20047;-93
2023/10/06 00:38:53;;;;;;;8.43;4.55;;;13.30;66.70;;;;;;5118259;28;20048;-93
2023/10/06 00:41:24;;;;;;;9.00;5.25;;;13.40;66.40;;;;;;5100669;28;20071;-92
2023/10/06 00:43:59;;;;;;;13.88;6.30;;;13.40;66.70;;;;;;5101494;28;20122;-92
2023/10/06 00:46:25;;;;;;;14.85;6.25;;;13.40;66.30;;;;;;5084167;28;20043;-93
2023/10/06 00:49:04;;;;;;;8.80;4.88;;;13.30;66.20;;;;;;5099856;28;20049;-92
2023/10/06 00:51:34;;;;;;;7.78;5.10;;;13.30;65.90;;;;;;5084066;28;20100;-93
2023/10/06 00:54:12;;;;;;;9.73;6.03;;;13.40;68.10;;;;;;5099526;28;20044;-94
2023/10/06 00:56:53;;;;;;;11.15;5.95;;;13.30;67.60;;;;;;5098812;28;20044;-94
2023/10/06 00:59:23;;;;;;;8.75;5.70;;;13.00;67.60;;;;;;5104362;28;20107;-93
2023/10/06 01:01:52;;;;;;;11.48;6.15;;;13.20;69.40;;;;;;5146794;27;20044;-93
2023/10/06 01:04:25;;;;;;;11.13;6.10;;;13.40;69.40;;;;;;5085129;28;20093;-94
2023/10/06 01:07:00;;;;;;;8.98;6.05;;;13.30;70.00;;;;;;5100900;28;20047;-92
2023/10/06 01:09:33;;;;;;;11.65;5.95;;;13.30;69.00;;;;;;5083951;28;20047;-94
2023/10/06 01:11:59;;;;;;;10.57;5.85;;;13.40;70.40;;;;;;5101333;28;20477;-93
2023/10/06 01:14:26;;;;;;;15.15;5.93;;;13.30;69.90;;;;;;5100728;28;20050;-93
2023/10/06 01:17:08;;;;;;;11.52;6.63;;;13.40;69.90;;;;;;5100726;28;20046;-91
2023/10/06 01:19:34;;;;;;;13.68;6.63;;;13.30;69.00;;;;;;5085039;28;20043;-92
2023/10/06 01:22:32;;;;;;;8.75;6.35;;;13.30;68.70;;;;;;5083444;28;20043;-93
2023/10/06 01:25:09;;;;;;;11.90;7.22;;;13.30;67.60;;;;;;5100484;28;20103;-92
2023/10/06 01:27:36;;;;;;;12.88;6.07;;;13.30;67.90;;;;;;5102900;28;20051;-92
2023/10/06 01:32:44;;;;;;;14.88;7.60;;;13.40;66.80;;;;;;5100081;28;20048;-93
2023/10/06 01:35:17;;;;;;;13.43;6.57;;;13.40;66.50;;;;;;5099531;28;20064;-94
2023/10/06 01:37:58;;;;;;;12.77;6.72;;;13.40;65.70;;;;;;5101504;28;20058;-94
2023/10/06 01:42:55;;;;;;;12.50;7.32;;;13.40;65.70;;;;;;5116467;28;20069;-93
2023/10/06 01:45:21;;;;;;;14.13;7.63;;;13.40;66.40;;;;;;5116424;28;20039;-93
2023/10/06 01:47:56;;;;;;;13.68;8.27;;;13.40;66.60;;;;;;5118299;28;20101;-93
2023/10/06 01:50:27;;;;;;;12.27;7.50;;;13.50;66.20;;;;;;5103265;28;20047;-93
2023/10/06 01:53:05;;;;;;;10.68;7.35;;;13.50;67.40;;;;;;5101920;28;20078;-93
2023/10/06 01:55:37;;;;;;;10.93;7.28;;;13.40;66.70;;;;;;5102155;28;20075;-93
2023/10/06 01:58:04;;;;;;;16.00;7.45;;;13.40;66.90;;;;;;5100867;28;20484;-93
2023/10/06 02:00:35;;;;;;;11.70;6.80;;;13.50;66.40;;;;;;5100770;28;20108;-94
2023/10/06 02:03:09;;;;;;;11.60;6.45;;;13.50;66.70;;;;;;5101311;28;20078;-92
2023/10/06 02:05:38;;;;;;;12.57;7.45;;;13.40;66.90;;;;;;5085657;28;20107;-93
2023/10/06 02:08:14;;;;;;;11.30;7.13;;;13.40;67.40;;;;;;5101762;28;20069;-93
2023/10/06 02:10:50;;;;;;;12.10;7.28;;;13.50;66.60;;;;;;5101947;28;20139;-93
2023/10/06 02:13:21;;;;;;;13.15;6.50;;;13.50;67.40;;;;;;5101666;28;20046;-94
2023/10/06 02:16:00;;;;;;;14.90;7.97;;;13.50;68.10;;;;;;5101655;28;20046;-93
2023/10/06 02:18:36;;;;;;;14.40;7.20;;;12.90;66.00;;;;;;5100141;28;20043;-93
2023/10/06 02:21:11;;;;;;;13.68;7.35;;;13.50;67.80;;;;;;5100439;28;20047;-92
2023/10/06 02:23:38;;;;;;;10.13;7.68;;;13.50;66.20;;;;;;5099331;28;20423;-92
2023/10/06 02:26:25;;;;;;;11.05;7.45;;;13.50;67.70;;;;;;5099652;28;20047;-92
2023/10/06 02:28:56;;;;;;;13.98;7.55;;;13.50;66.70;;;;;;5099839;28;20062;-93
2023/10/06 02:31:24;;;;;;;15.02;7.70;;;13.50;66.70;;;;;;5115121;28;20039;-93
2023/10/06 02:33:51;;;;;;;13.73;7.13;;;13.50;66.60;;;;;;5098492;28;20079;-93
2023/10/06 02:36:25;;;;;;;9.98;7.22;;;13.50;66.20;;;;;;5081224;28;20043;-94
2023/10/06 02:39:00;;;;;;;11.27;7.60;;;13.50;66.50;;;;;;5127465;27;20040;-93
2023/10/06 02:41:33;;;;;;;11.55;7.28;;;13.50;67.60;;;;;;5097483;28;20043;-94
2023/10/06 02:44:08;;;;;;;12.20;8.18;;;13.40;68.20;;;;;;5080513;28;20059;-93
2023/10/06 02:46:36;;;;;;;12.18;7.47;;;13.40;68.40;;;;;;5125223;27;20065;-94
2023/10/06 02:49:07;;;;;;;13.15;8.50;;;13.50;68.80;;;;;;5128365;27;20052;-93
2023/10/06 02:51:47;;;;;;;12.70;7.57;;;13.50;69.20;;;;;;5103330;28;20044;-94
2023/10/06 02:56:44;;;;;;;10.85;8.27;;;14.10;63.30;;;;;;5118317;28;19935;-94
2023/10/06 02:59:28;;;;;;;14.02;8.02;;;13.40;70.30;;;;;;5102829;28;20480;-93
2023/10/06 03:02:06;;;;;;;12.20;8.38;;;13.40;69.90;;;;;;5088519;28;20031;-93
2023/10/06 03:04:40;;;;;;;14.95;8.35;;;13.40;70.40;;;;;;5103307;28;20054;-93
2023/10/06 03:07:14;;;;;;;14.60;8.57;;;13.30;71.00;;;;;;5099795;28;20035;-91
2023/10/06 03:09:45;;;;;;;14.52;7.75;;;13.40;71.10;;;;;;5099201;28;20047;-92
2023/10/06 03:12:27;;;;;;;14.05;8.73;;;13.30;71.90;;;;;;5102221;28;20096;-92
2023/10/06 03:14:58;;;;;;;9.82;7.57;;;13.40;71.90;;;;;;5085296;28;20036;-93
2023/10/06 03:17:27;;;;;;;14.77;9.32;;;13.00;73.00;;;;;;5101260;28;20047;-92
2023/10/06 03:20:10;;;;;;;16.73;8.85;;;13.20;73.90;;;;;;5101290;28;20040;-94
2023/10/06 03:22:41;;;;;;;15.90;9.93;;;13.20;74.90;;;;;;5102968;28;20553;-93
2023/10/06 03:25:15;;;;;;;14.18;8.95;;;13.20;75.90;;;;;;5082525;28;20382;-93
2023/10/06 03:27:54;;;;;;;13.02;8.93;;;13.20;76.90;;;;;;5101349;28;20517;-93
2023/10/06 03:30:33;;;;;;;12.23;9.05;;;13.10;77.60;;;;;;5086289;28;20122;-94
2023/10/06 03:33:00;;;;;;;15.68;8.70;;;13.10;78.70;;;;;;5087847;28;20039;-93
2023/10/06 03:35:45;;;;;;;12.63;8.55;;;13.10;79.70;;;;;;5102658;28;20492;-93
2023/10/06 03:40:45;;;;;;;14.07;8.90;;;13.10;81.90;;;;;;5139528;27;20075;-92
2023/10/06 03:43:15;;;;;;;16.85;9.13;;;12.30;82.40;;;;;;5119063;28;20055;-93
2023/10/06 03:45:47;;;;;;;19.52;10.10;;;13.10;83.50;;;;;;5102256;28;20403;-93
2023/10/06 03:48:16;;;;;;;13.35;8.65;;;13.20;84.10;;;;;;5106285;28;20068;-93
2023/10/06 03:50:45;;;;;;;17.80;9.70;;;13.10;84.60;;;;;;5130120;27;20040;-93
2023/10/06 03:53:22;;;;;;;;;;;;;;;;;;;;;
2023/10/06 03:55:49;;;;;;;15.48;9.73;;;13.10;84.90;;;;;;5121214;27;20039;-93
2023/10/06 03:58:18;;;;;;;15.73;9.20;;;13.10;85.40;;;;;;5085500;28;20135;-92
2023/10/06 04:00:47;;;;;;;16.63;8.93;;;13.10;85.50;;;;;;5083693;28;20044;-93
2023/10/06 04:03:14;;;;;;;16.60;9.63;;;13.10;85.80;;;;;;5083291;28;20112;-93
2023/10/06 04:05:50;;;;;;;15.80;9.07;;;13.60;85.90;;;;;;5082739;28;20044;-92
2023/10/06 04:08:22;;;;;;;16.20;9.45;;;13.20;85.10;;;;;;5096053;28;20104;-90
2023/10/06 04:10:51;;;;;;;13.63;8.98;;;13.10;85.20;;;;;;5087191;28;20036;-92
2023/10/06 04:13:19;;;;;;;17.15;8.48;;;13.10;85.10;;;;;;5103293;28;20184;-90
2023/10/06 04:15:49;;;;;;;14.25;9.55;;;13.20;84.60;;;;;;5098497;28;20047;-92
2023/10/06 04:18:21;;;;;;;16.90;8.88;;;13.10;83.90;;;;;;5083378;28;20054;-91
2023/10/06 04:20:50;;;;;;;13.57;8.50;;;13.10;83.70;;;;;;5083269;28;20048;-94
2023/10/06 04:23:25;;;;;;;12.02;8.10;;;12.30;82.60;;;;;;5104676;28;20047;-91
2023/10/06 04:25:56;;;;;;;11.52;8.15;;;13.10;83.10;;;;;;5096359;28;20056;-93
2023/10/06 04:28:24;;;;;;;14.48;9.05;;;13.20;82.80;;;;;;5101089;28;20079;-94
2023/10/06 04:30:54;;;;;;;14.80;9.05;;;13.20;82.60;;;;;;5100854;28;20039;-94
2023/10/06 04:33:21;;;;;;;11.13;7.97;;;13.00;82.00;;;;;;5100191;28;20080;-90
2023/10/06 04:35:59;;;;;;;14.90;7.20;;;13.20;81.70;;;;;;5100288;28;20544;-92
2023/10/06 04:38:31;;;;;;;14.60;9.05;;;13.20;81.10;;;;;;5100954;28;20047;-91
2023/10/06 04:40:57;;;;;;;17.27;8.48;;;13.20;81.30;;;;;;5101699;28;20485;-93
2023/10/06 04:43:24;;;;;;;12.50;7.90;;;13.10;82.20;;;;;;5100157;28;20047;-91
2023/10/06 04:45:57;;;;;;;16.30;8.18;;;13.10;82.30;;;;;;5102997;28;20047;-93
2023/10/06 04:48:25;;;;;;;10.95;7.97;;;13.10;82.40;;;;;;5101528;28;20036;-91
2023/10/06 04:50:53;;;;;;;12.85;7.80;;;13.10;82.60;;;;;;5085436;28;20043;-92
2023/10/06 04:53:25;;;;;;;10.40;6.82;;;13.10;82.00;;;;;;5140301;27;20046;-91
2023/10/06 04:56:06;;;;;;;17.58;7.47;;;13.10;81.70;;;;;;5101524;28;20101;-92
2023/10/06 04:58:36;;;;;;;9.70;6.90;;;13.20;81.20;;;;;;5082536;28;20040;-91
2023/10/06 05:01:07;;;;;;;17.92;7.70;;;13.10;80.60;;;;;;5101403;27;20051;-93
2023/10/06 05:03:48;;;;;;;11.40;6.78;;;13.10;80.30;;;;;;5086733;28;20044;-93
2023/10/06 05:06:18;;;;;;;14.35;6.85;;;13.10;80.60;;;;;;5099996;28;20484;-94
2023/10/06 05:08:49;;;;;;;11.80;7.50;;;13.10;80.70;;;;;;5130880;27;20089;-92
2023/10/06 05:11:19;;;;;;;14.48;7.53;;;13.10;80.30;;;;;;5084287;28;20043;-94
2023/10/06 05:13:52;;;;;;;12.65;7.25;;;13.10;80.20;;;;;;5086736;27;20835;-92
2023/10/06 05:16:27;;;;;;;22.67;9.02;;;13.10;79.80;;;;;;5100413;28;20036;-93
2023/10/06 05:18:53;;;;;;;14.70;7.40;;;13.10;79.90;;;;;;5101397;28;20039;-93
2023/10/06 05:21:27;;;;;;;11.95;7.15;;;13.10;80.10;;;;;;5102458;28;20056;-89
2023/10/06 05:23:58;;;;;;;13.88;6.88;;;13.10;80.30;;;;;;5099400;28;20043;-87
2023/10/06 05:26:24;;;;;;;12.70;7.53;;;13.10;80.60;;;;;;5098329;28;20055;-87
2023/10/06 05:29:02;;;;;;;;;;;;;;;;;;;;;
2023/10/06 05:32:03;;;;;;;;;;;;;;;;;;;;;
2023/10/06 05:34:32;;;;;;;13.80;8.25;;;12.90;79.40;;;;;;5101968;28;20048;-92
2023/10/06 05:37:12;;;;;;;12.98;7.13;;;13.10;81.40;;;;;;5082430;28;20492;-90
2023/10/06 05:39:40;;;;;;;14.40;6.80;;;13.10;81.30;;;;;;5081861;28;20032;-86
2023/10/06 05:42:12;;;;;;;14.88;7.75;;;13.10;81.30;;;;;;5112456;28;20373;-87
2023/10/06 05:44:38;;;;;;;11.57;7.90;;;13.20;81.30;;;;;;5097222;28;20043;-85
2023/10/06 05:47:12;;;;;;;10.40;7.10;;;13.10;81.50;;;;;;5094753;28;20046;-85
2023/10/06 05:49:38;;;;;;;14.35;8.35;;;13.10;81.00;;;;;;5107055;28;20502;-84
2023/10/06 05:52:10;;;;;;;9.73;6.78;;;13.20;80.60;;;;;;5092254;28;20126;-87
2023/10/06 05:54:37;;;;;;;15.70;7.38;;;13.10;80.50;;;;;;5115964;27;20048;-87
2023/10/06 05:57:04;;;;;;;11.25;7.85;;;13.20;80.20;;;;;;5096577;28;20053;-86
2023/10/06 05:59:33;;;;;;;11.52;7.40;;;13.20;80.30;;;;;;5137903;27;20116;-87
2023/10/06 06:02:02;;;;;;;13.88;7.80;;;13.20;80.30;;;;;;5114894;28;20047;-89
2023/10/06 06:04:34;;;;;;;12.80;7.47;;;13.20;80.20;;;;;;5118444;27;20082;-89
2023/10/06 06:07:03;;;;;;;14.25;7.90;;;13.30;80.80;;;;;;5093646;28;20637;-86
2023/10/06 06:09:31;;;;;;;16.92;7.63;;;13.30;80.70;;;;;;5096668;28;20108;-87
2023/10/06 06:11:59;;;;;;;13.43;8.15;;;13.30;80.10;;;;;;5147507;27;20043;-86
2023/10/06 06:14:25;;;;;;;;;;;13.30;80.00;;;;;;5096677;28;20047;-88
2023/10/06 06:16:57;;;;;;;12.23;7.90;;;13.30;76.60;;;;;;5112738;28;20076;-86
2023/10/06 06:19:23;;;;;;;21.83;8.60;;;13.30;80.00;;;;;;5110681;28;20039;-87
2023/10/06 06:21:49;;;;;;;12.38;7.50;;;13.40;80.00;;;;;;5141081;27;20051;-87
2023/10/06 06:24:20;;;;;;;10.63;6.85;;;13.40;79.60;;;;;;5111736;28;20550;-87
2023/10/06 06:26:45;;;;;;;13.48;7.45;;;13.30;79.10;;;;;;5095058;28;20055;-88
2023/10/06 06:29:11;;;;;;;13.97;7.83;;;13.40;79.40;;;;;;5076999;28;20055;-86
2023/10/06 06:31:41;;;;;;;15.33;7.70;;;13.40;79.90;;;;;;5109838;28;20806;-88
2023/10/06 06:34:06;;;;;;;18.10;8.65;;;13.40;79.00;;;;;;5111659;28;20541;-87
2023/10/06 06:36:33;;;;;;;12.00;8.30;;;13.40;79.10;;;;;;5094673;28;20039;-88
2023/10/06 06:38:59;;;;;;;12.43;7.93;;;13.50;78.40;;;;;;5094192;28;20324;-86
2023/10/06 06:41:25;;;;;;;14.73;7.50;;;13.50;78.10;;;;;;5110992;28;20048;-88
2023/10/06 06:43:58;;;;;;;;;;;13.50;77.60;;;;;;5133198;27;20070;-86
2023/10/06 06:46:26;;;;;;;16.65;8.02;;;13.50;74.70;;;;;;5121560;28;19927;-87
2023/10/06 06:48:52;;;;;;;12.50;7.20;;;13.50;77.40;;;;;;5125496;28;20122;-89
2023/10/06 06:51:33;;;;;;;17.88;8.63;;;13.60;77.70;;;;;;5097975;28;20485;-94
2023/10/06 06:54:36;;;;;;;;;;;;;;;;;;;;;
2023/10/06 06:57:29;;;;;;;;;;;;;;;;;;;;;
2023/10/06 07:00:08;;;;;;;15.18;8.68;;;13.20;80.30;;;;;;5130768;27;20035;-93
2023/10/06 07:02:50;;;;;;;13.30;8.60;;;13.50;82.00;;;;;;5080553;28;20039;-91
2023/10/06 07:05:17;;;;;;;13.25;8.70;;;13.60;84.40;;;;;;5114122;28;20135;-86
2023/10/06 07:07:47;;;;;;;15.07;8.30;;;13.60;86.20;;;;;;5092959;28;20047;-89
2023/10/06 07:10:25;;;;;;;13.45;9.13;;;13.70;86.80;;;;;;5095210;28;20079;-87
2023/10/06 07:12:53;;;;;;;13.80;8.18;;;13.70;87.60;;;;;;5079842;28;20470;-91
2023/10/06 07:15:24;;;;;;;15.95;9.45;;;13.30;86.60;;;;;;5114850;28;20059;-90
2023/10/06 07:18:00;;;;;;;13.25;9.23;;;13.80;85.90;;;;;;5098707;28;20044;-89
2023/10/06 07:20:35;;;;;;;16.38;8.75;;;13.80;83.40;;;;;;5098157;28;20050;-89
2023/10/06 07:23:05;;;;;;;18.58;9.18;;;13.80;82.20;;;;;;5114290;28;20047;-89
2023/10/06 07:25:31;;;;;;;14.93;8.95;;;13.80;82.20;;;;;;5115431;28;20043;-90
2023/10/06 07:28:00;;;;;;;14.27;8.10;;;13.80;82.60;;;;;;5097470;28;20104;-89
2023/10/06 07:30:29;;;;;;;12.30;8.68;;;14.00;82.50;;;;;;5098097;28;20055;-89
2023/10/06 07:33:08;;;;;;;13.65;8.23;;;13.80;80.90;;;;;;5133104;27;20055;-89
2023/10/06 07:35:41;;;;;;;14.60;8.30;;;13.80;79.70;;;;;;5119258;28;20047;-89
2023/10/06 07:38:10;;;;;;;16.77;8.45;;;13.80;79.90;;;;;;5118764;28;20039;-89
2023/10/06 07:40:48;;;;;;;18.02;8.85;;;13.80;80.20;;;;;;5118801;28;20051;-89
2023/10/06 07:43:17;;;;;;;14.32;8.52;;;13.80;80.10;;;;;;5102470;28;20050;-90
2023/10/06 07:45:47;;;;;;;11.82;8.77;;;13.80;81.50;;;;;;5117974;28;20047;-90
2023/10/06 07:48:18;;;;;;;12.10;8.07;;;13.80;82.90;;;;;;5118801;27;20127;-89
2023/10/06 07:50:55;;;;;;;15.07;9.52;;;13.80;85.40;;;;;;5118797;27;20103;-89
2023/10/06 07:53:32;;;;;;;17.88;9.27;;;13.80;87.20;;;;;;5102909;28;20058;-89
2023/10/06 07:56:24;;;;;;;16.45;8.85;;;13.80;89.00;;;;;;5118513;27;20043;-89
2023/10/06 07:58:53;;;;;;;13.85;9.55;;;13.90;90.10;;;;;;5097332;28;20056;-92
2023/10/06 08:01:45;;;;;;;14.35;9.13;;;13.90;89.70;;;;;;5085263;28;20439;-89
2023/10/06 08:04:18;;;;;;;19.83;9.52;;;14.00;87.80;;;;;;5119735;27;20048;-89
2023/10/06 08:06:46;;;;;;;14.90;9.20;;;14.00;87.60;;;;;;5101360;28;20039;-89
2023/10/06 08:09:25;;;;;;;16.75;9.45;;;14.10;86.30;;;;;;5117876;28;20554;-89
2023/10/06 08:11:54;;;;;;;19.52;10.45;;;14.10;85.00;;;;;;5118752;27;20051;-92
2023/10/06 08:14:25;;;;;;;15.10;9.15;;;14.10;85.70;;;;;;5152924;27;20047;-90
2023/10/06 08:16:53;;;;;;;18.08;10.70;;;13.70;86.60;;;;;;5135808;27;20381;-91
2023/10/06 08:19:20;;;;;;;13.70;10.15;;;14.00;89.10;;;;;;5118362;28;20481;-89
2023/10/06 08:21:51;;;;;;;16.17;9.50;;;14.10;90.40;;;;;;5117615;28;20046;-89
2023/10/06 08:24:25;;;;;;;14.73;10.55;;;13.50;91.20;;;;;;5102814;28;20043;-89
2023/10/06 08:26:54;;;;;;;15.10;10.02;;;14.10;92.00;;;;;;5117411;28;20058;-89
2023/10/06 08:29:33;;;;;;;;;;;;;;;;;;;;;
2023/10/06 08:32:09;;;;;;;15.25;9.88;;;14.20;92.20;;;;;;5117999;28;20063;-89
2023/10/06 08:34:40;;;;;;;17.27;9.40;;;14.20;91.60;;;;;;5100709;28;20400;-89
2023/10/06 08:37:11;;;;;;;14.57;10.55;;;13.40;91.80;;;;;;5101780;28;20042;-90
2023/10/06 08:39:56;;;;;;;13.07;9.45;;;14.20;91.80;;;;;;5120091;28;20108;-89
2023/10/06 08:42:40;;;;;;;17.52;10.25;;;14.30;92.10;;;;;;5118488;27;20480;-89
2023/10/06 08:45:21;;;;;;;16.27;10.02;;;14.30;92.30;;;;;;5102016;28;20393;-88
2023/10/06 08:47:54;;;;;;;24.77;10.75;;;14.40;93.10;;;;;;5118241;28;20489;-89
2023/10/06 08:50:25;;;;;;;15.45;9.07;;;13.80;91.60;;;;;;5134183;27;20052;-90
2023/10/06 08:52:57;;;;;;;18.77;9.05;;;14.20;91.00;;;;;;5101115;28;20621;-89
2023/10/06 08:55:25;;;;;;;15.38;8.77;;;14.60;90.80;;;;;;5100571;28;20142;-89
2023/10/06 08:57:59;;;;;;;15.05;8.70;;;14.60;89.90;;;;;;5101034;28;20386;-90
2023/10/06 09:00:31;;;;;;;16.65;9.23;;;14.70;83.30;;;;;;5117843;28;20039;-89
2023/10/06 09:03:11;;;;;;;12.82;8.63;;;14.80;85.80;;;;;;5119261;27;20488;-89
2023/10/06 09:05:43;;;;;;;13.68;8.75;;;14.50;84.20;;;;;;5099014;28;20066;-89
2023/10/06 09:08:24;;;;;;;;;;;;;;;;;;;;;
2023/10/06 09:10:54;;;;;;;12.10;8.65;;;15.00;81.80;;;;;;5118680;28;20497;-89
2023/10/06 09:13:21;;;;;;;15.48;8.55;;;14.80;80.60;;;;;;5117877;28;20043;-89
2023/10/06 09:16:06;;;;;;;16.85;8.30;;;15.00;79.30;;;;;;5101274;28;20039;-89
2023/10/06 09:18:40;;;;;;;15.23;7.88;;;15.10;74.90;;;;;;5117495;28;20051;-89
2023/10/06 09:21:19;;;;;;;16.13;8.68;;;14.60;77.00;;;;;;5100465;28;20083;-89
2023/10/06 09:24:27;;;;;;;14.82;7.60;;;15.30;74.20;;;;;;5115058;28;20108;-89
2023/10/06 09:26:55;;;;;;;13.98;7.38;;;15.40;69.90;;;;;;5113043;27;20077;-89
2023/10/06 09:29:36;;;;;;;12.90;8.27;;;15.50;68.60;;;;;;5113027;28;20083;-89
2023/10/06 09:32:20;;;;;;;16.13;7.97;;;15.70;65.10;;;;;;5114052;27;20401;-91
2023/10/06 09:34:46;;;;;;;17.05;7.68;;;15.90;60.20;;;;;;5113635;28;20046;-89
2023/10/06 09:37:20;;;;;;;11.90;7.70;;;15.90;61.80;;;;;;5095943;28;20468;-89
2023/10/06 09:40:10;;;;;;;15.93;7.55;;;16.00;51.60;;;;;;5113000;28;20044;-89
2023/10/06 09:42:40;;;;;;;16.77;8.88;;;16.10;53.40;;;;;;5096251;28;20083;-91
2023/10/06 09:45:15;;;;;;;14.55;8.80;;;16.30;53.40;;;;;;5095703;28;20096;-90
2023/10/06 09:47:56;;;;;;;14.32;6.15;;;16.40;48.50;;;;;;5113013;28;20117;-90
2023/10/06 09:50:26;;;;;;;13.55;7.55;;;16.30;44.30;;;;;;5112776;28;20054;-89
2023/10/06 09:52:57;;;;;;;11.65;7.38;;;16.40;47.00;;;;;;5096110;28;20044;-90
2023/10/06 09:55:25;;;;;;;13.40;7.95;;;16.50;45.30;;;;;;5095613;28;20052;-89
2023/10/06 09:57:56;;;;;;;11.20;6.63;;;16.50;43.00;;;;;;5096063;28;20048;-89
2023/10/06 10:00:29;;;;;;;14.55;7.18;;;16.50;37.50;;;;;;5112537;28;20048;-89
2023/10/06 10:03:04;;;;;;;14.70;7.07;;;16.50;35.60;;;;;;5116445;27;20056;-89
2023/10/06 10:08:47;;;;;;;10.13;6.43;;;16.50;25.70;;;;;;5121974;28;20087;-90
2023/10/06 10:11:39;;;;;;;;;;;;;;;;;;;;;
2023/10/06 10:14:26;;;;;;;13.13;5.97;;;16.40;32.00;;;;;;5117176;28;20051;-89
2023/10/06 10:17:18;;;;;;;10.97;6.33;;;16.30;29.90;;;;;;5101036;28;20043;-90
2023/10/06 10:19:56;;;;;;;14.27;6.25;;;16.50;30.60;;;;;;5134174;27;20319;-91
2023/10/06 10:22:25;;;;;;;13.85;7.03;;;16.40;32.60;;;;;;5100520;28;20135;-90
2023/10/06 10:24:51;;;;;;;12.75;6.65;;;16.10;34.00;;;;;;5100486;28;20066;-90
2023/10/06 10:27:25;;;;;;;11.60;7.05;;;16.60;33.10;;;;;;5100128;28;20059;-90
2023/10/06 10:29:51;;;;;;;10.93;6.20;;;16.80;28.60;;;;;;5101005;28;20054;-90
2023/10/06 10:32:38;;;;;;;9.57;5.88;;;16.80;28.20;;;;;;5100369;28;20044;-90
2023/10/06 10:35:18;;;;;;;12.60;7.47;;;16.90;28.30;;;;;;5100478;28;20099;-89
2023/10/06 10:38:02;;;;;;;11.32;5.88;;;16.90;23.50;;;;;;5100983;28;20044;-89
2023/10/06 10:40:49;;;;;;;10.48;6.25;;;17.10;21.20;;;;;;5100693;28;20481;-90
2023/10/06 10:43:21;;;;;;;10.88;6.90;;;17.10;20.30;;;;;;5100084;28;20055;-90
2023/10/06 10:45:54;;;;;;;18.25;5.97;;;17.20;25.60;;;;;;5117687;28;20039;-90
2023/10/06 10:48:22;;;;;;;10.02;5.82;;;16.70;22.60;;;;;;5100034;28;20044;-92
2023/10/06 10:51:12;;;;;;;9.38;5.35;;;17.40;22.80;;;;;;5100500;28;20044;-91
2023/10/06 10:53:52;;;;;;;10.05;5.82;;;17.60;24.40;;;;;;5115335;28;20052;-91
2023/10/06 10:56:48;;;;;;;10.48;6.35;;;17.70;19.40;;;;;;5118633;28;20101;-91
2023/10/06 10:59:31;;;;;;;13.18;5.50;;;17.60;12.80;;;;;;5100933;28;20107;-91
2023/10/06 11:02:08;;;;;;;12.70;6.20;;;17.80;8.50;;;;;;5118477;28;20051;-90
2023/10/06 11:04:40;;;;;;;7.82;5.63;;;17.80;7.30;;;;;;5100518;28;20047;-89
2023/10/06 11:07:15;;;;;;;7.90;5.45;;;17.80;8.90;;;;;;5117232;28;20519;-90
2023/10/06 11:09:58;;;;;;;8.55;5.22;;;17.70;1.00;;;;;;5103943;28;20057;-91
2023/10/06 11:12:30;;;;;;;13.82;5.40;;;17.20;2.40;;;;;;5104102;28;20101;-90
2023/10/06 11:15:18;;;;;;;10.27;4.82;;;17.80;2.90;;;;;;5104270;28;20149;-90
2023/10/06 11:18:02;;;;;;;13.75;5.07;;;17.80;1.00;;;;;;5104993;28;20377;-93
2023/10/06 11:20:33;;;;;;;9.48;4.72;;;18.10;1.00;;;;;;5103763;28;20043;-89
2023/10/06 11:23:04;;;;;;;9.60;5.10;;;18.00;1.00;;;;;;5119746;28;20047;-91
2023/10/06 11:25:36;;;;;;;10.70;5.30;;;17.90;1.00;;;;;;5103627;28;20043;-93
2023/10/06 11:28:19;;;;;;;14.77;5.07;;;17.90;1.00;;;;;;5104462;28;20096;-90
2023/10/06 11:31:12;;;;;;;9.27;5.72;;;17.80;1.00;;;;;;5103688;28;20629;-90
2023/10/06 11:33:50;;;;;;;10.82;5.18;;;18.40;1.00;;;;;;5122568;27;20052;-88
2023/10/06 11:36:19;;;;;;;11.88;4.82;;;17.80;1.00;;;;;;5104112;28;20074;-89
2023/10/06 11:39:03;;;;;;;10.45;5.05;;;17.70;2.50;;;;;;5122650;28;20043;-91
2023/10/06 11:41:54;;;;;;;9.27;4.85;;;17.80;1.00;;;;;;5104454;28;20116;-90
2023/10/06 11:47:50;;;;;;;12.52;6.45;;;17.80;1.00;;;;;;5121333;28;20082;-90
2023/10/06 11:50:29;;;;;;;12.93;5.63;;;17.90;1.00;;;;;;5105034;28;20187;-90
2023/10/06 11:52:57;;;;;;;12.32;6.63;;;18.00;1.00;;;;;;5121288;28;20056;-90
2023/10/06 11:55:46;;;;;;;13.38;5.13;;;18.20;1.00;;;;;;5121700;28;20091;-92
2023/10/06 11:58:14;;;;;;;9.88;5.00;;;18.30;1.00;;;;;;5099452;28;20052;-90
2023/10/06 12:00:41;;;;;;;;;;;18.20;1.00;;;;;;5104531;28;20047;-89
2023/10/06 12:03:56;;;;;;;10.57;5.65;;;17.50;1.00;;;;;;5155898;27;19928;-90
2023/10/06 12:06:23;;;;;;;9.02;5.80;;;18.20;1.00;;;;;;5103750;28;20075;-93
2023/10/06 12:08:59;;;;;;;10.48;5.03;;;18.00;1.00;;;;;;5137774;27;20143;-91
2023/10/06 12:11:56;;;;;;;10.70;4.65;;;18.40;1.00;;;;;;5120946;28;20103;-91
2023/10/06 12:14:14;;;;;;;14.20;5.63;;;18.40;1.00;;;;;;5101095;28;20058;-91
2023/10/06 12:16:49;;;;;;;10.45;5.22;;;17.70;1.00;;;;;;5103459;28;20069;-91
2023/10/06 12:19:24;;;;;;;12.18;4.95;;;18.60;1.00;;;;;;5119695;28;20040;-90
2023/10/06 12:24:57;;;;;;;8.25;4.93;;;19.00;1.00;;;;;;5137122;27;20056;-90
2023/10/06 12:27:35;;;;;;;13.63;5.60;;;19.20;1.00;;;;;;5120387;27;20055;-93
2023/10/06 12:30:10;;;;;;;11.52;5.22;;;19.30;1.00;;;;;;5102872;28;20496;-90
2023/10/06 12:32:49;;;;;;;9.73;4.80;;;18.60;1.00;;;;;;5119375;28;20035;-94
2023/10/06 12:35:36;;;;;;;;;;;;;;;;;;;;;
2023/10/06 12:38:09;;;;;;;7.93;4.53;;;19.50;1.00;;;;;;5117328;27;20480;-90
2023/10/06 12:40:38;;;;;;;9.50;6.05;;;19.50;1.00;;;;;;5114599;27;20100;-90
2023/10/06 12:43:19;;;;;;;13.93;5.95;;;19.40;1.00;;;;;;5114408;27;20434;-91
2023/10/06 12:45:45;;;;;;;14.38;6.07;;;19.40;1.00;;;;;;5097121;28;20035;-90
2023/10/06 12:48:11;;;;;;;;;;;19.50;1.00;;;;;;5114394;28;20056;-90
2023/10/06 12:50:53;;;;;;;;;;;;;;;;;;;;;
2023/10/06 12:53:22;;;;;;;8.93;4.80;;;19.70;1.00;;;;;;5148368;27;20096;-90
2023/10/06 12:56:44;;;;;;;13.27;4.70;;;19.80;1.00;;;;;;5096968;28;20039;-93
2023/10/06 12:59:09;;;;;;;11.95;5.18;;;20.70;1.00;;;;;;5099667;28;20131;-90
2023/10/06 13:01:56;;;;;;;12.80;5.55;;;19.80;1.00;;;;;;5118028;27;20138;-91
2023/10/06 13:04:41;;;;;;;;;;;;;;;;;;;;;
2023/10/06 13:07:48;;;;;;;10.60;5.22;;;19.50;1.00;;;;;;5122358;27;20075;-91
2023/10/06 13:10:16;;;;;;;11.68;6.22;;;19.40;1.00;;;;;;5106205;28;20542;-91
2023/10/06 13:13:24;;;;;;;7.70;4.47;;;19.30;1.00;;;;;;5133817;27;20047;-92
2023/10/06 13:16:28;;;;;;;12.10;5.25;;;19.20;1.00;;;;;;5116865;28;20039;-93
2023/10/06 13:19:06;;;;;;;9.95;4.45;;;19.10;1.00;;;;;;5098888;28;20126;-91
2023/10/06 13:22:15;;;;;;;11.75;4.35;;;18.70;1.00;;;;;;5116633;28;20040;-91
2023/10/06 13:24:49;;;;;;;8.15;3.40;;;19.40;1.00;;;;;;5113372;28;20386;-91
2023/10/06 13:27:36;;;;;;;15.07;4.90;;;19.00;1.00;;;;;;5098856;28;20047;-90
2023/10/06 13:30:13;;;;;;;11.20;4.55;;;18.70;1.00;;;;;;5130499;27;20091;-91
2023/10/06 13:32:46;;;;;;;10.13;4.05;;;19.00;1.00;;;;;;5095985;28;20054;-91
2023/10/06 13:35:19;;;;;;;8.45;4.55;;;19.00;1.00;;;;;;5096737;28;20051;-91
2023/10/06 13:37:50;;;;;;;14.75;4.35;;;18.80;1.00;;;;;;5096079;28;20435;-91
2023/10/06 13:40:20;;;;;;;10.63;4.35;;;19.00;1.00;;;;;;5096267;28;20039;-91
2023/10/06 13:42:57;;;;;;;9.30;4.65;;;19.00;1.00;;;;;;5113108;28;20032;-90
2023/10/06 13:45:39;;;;;;;6.60;4.65;;;18.80;1.00;;;;;;5095839;28;20048;-91
2023/10/06 13:48:21;;;;;;;;;;;;;;;;;;;;;
2023/10/06 13:50:52;;;;;;;15.20;5.57;;;18.70;1.00;;;;;;5113080;27;20043;-89
2023/10/06 13:56:15;;;;;;;9.02;3.80;;;19.10;1.00;;;;;;5088934;28;20048;-91
2023/10/06 13:58:44;;;;;;;11.90;4.57;;;19.00;1.00;;;;;;5113003;28;20050;-92